createdAt,value
2017-09-25T00:01:42.218Z,20.80
2017-09-25T00:04:09.691Z,21.30
2017-09-25T00:06:37.239Z,21.13
2017-09-25T00:09:04.717Z,19.93
2017-09-25T00:11:32.173Z,21.27
2017-09-25T00:13:59.662Z,20.30
2017-09-25T00:16:27.116Z,21.10
2017-09-25T00:18:54.580Z,20.53
2017-09-25T00:21:22.063Z,21.10
2017-09-25T00:23:49.520Z,20.30
2017-09-25T00:26:17.022Z,22.37
2017-09-25T00:28:44.491Z,21.00
2017-09-25T00:31:11.969Z,21.20
2017-09-25T00:33:39.431Z,21.50
2017-09-25T00:36:06.916Z,20.27
2017-09-25T00:38:34.375Z,22.10
2017-09-25T00:41:01.850Z,22.50
2017-09-25T00:43:29.302Z,21.77
2017-09-25T00:45:56.787Z,24.40
2017-09-25T00:48:24.243Z,23.17
2017-09-25T00:50:51.724Z,20.90
2017-09-25T00:53:26.671Z,22.63
2017-09-25T00:55:54.153Z,21.10
2017-09-25T00:58:21.615Z,23.67
2017-09-25T01:01:00.960Z,23.33
2017-09-25T01:03:40.395Z,21.30
2017-09-25T01:06:19.767Z,21.57
2017-09-25T01:08:47.241Z,21.63
2017-09-25T01:11:14.732Z,21.97
2017-09-25T01:13:42.196Z,19.90
2017-09-25T01:16:09.702Z,20.50
2017-09-25T01:18:37.187Z,23.80
2017-09-25T01:21:04.745Z,20.37
2017-09-25T01:23:32.194Z,20.50
2017-09-25T01:25:59.670Z,21.20
2017-09-25T01:28:27.183Z,21.07
2017-09-25T01:30:54.669Z,19.90
2017-09-25T01:33:22.176Z,20.80
2017-09-25T01:35:49.632Z,21.40
2017-09-25T01:38:17.117Z,21.93
2017-09-25T01:40:44.621Z,17.80
2017-09-25T01:43:12.117Z,19.87
2017-09-25T01:45:39.567Z,20.17
2017-09-25T01:48:07.044Z,20.90
2017-09-25T01:50:34.508Z,19.53
2017-09-25T01:53:01.997Z,20.53
2017-09-25T01:55:29.551Z,20.30
2017-09-25T01:57:57.036Z,20.13
2017-09-25T02:00:24.575Z,21.07
2017-09-25T02:02:52.058Z,21.17
2017-09-25T02:05:19.518Z,22.00
2017-09-25T02:07:47.009Z,21.40
2017-09-25T02:10:14.464Z,20.37
2017-09-25T02:12:41.931Z,18.87
2017-09-25T02:15:09.380Z,20.00
2017-09-25T02:17:36.850Z,18.93
2017-09-25T02:20:04.309Z,20.87
2017-09-25T02:22:31.798Z,20.83
2017-09-25T02:24:59.284Z,20.30
2017-09-25T02:27:26.758Z,23.23
2017-09-25T02:29:54.236Z,21.80
2017-09-25T02:32:21.706Z,20.20
2017-09-25T02:34:49.184Z,28.63
2017-09-25T02:37:16.641Z,27.83
2017-09-25T02:39:44.185Z,28.80
2017-09-25T02:42:11.641Z,29.90
2017-09-25T02:44:39.112Z,27.13
2017-09-25T02:47:06.650Z,27.70
2017-09-25T02:49:34.133Z,26.80
2017-09-25T02:52:01.586Z,24.40
2017-09-25T02:54:29.068Z,26.90
2017-09-25T02:56:56.523Z,26.40
2017-09-25T02:59:24.004Z,27.60
2017-09-25T03:01:51.481Z,26.87
2017-09-25T03:04:18.968Z,29.17
2017-09-25T03:06:46.447Z,27.80
2017-09-25T03:09:13.936Z,32.77
2017-09-25T03:11:41.415Z,29.17
2017-09-25T03:14:08.901Z,31.87
2017-09-25T03:16:36.366Z,32.37
2017-09-25T03:19:03.854Z,28.90
2017-09-25T03:21:31.325Z,31.07
2017-09-25T03:23:58.805Z,26.70
2017-09-25T03:26:26.263Z,30.20
2017-09-25T03:28:53.755Z,26.70
2017-09-25T03:31:21.216Z,25.23
2017-09-25T03:33:48.727Z,28.83
2017-09-25T03:36:16.314Z,25.90
2017-09-25T03:38:43.789Z,24.37
2017-09-25T03:41:11.269Z,26.53
2017-09-25T03:43:38.723Z,25.73
2017-09-25T03:46:06.191Z,24.77
2017-09-25T03:48:33.649Z,24.60
2017-09-25T03:51:01.118Z,29.27
2017-09-25T03:53:28.581Z,25.10
2017-09-25T03:55:56.064Z,25.23
2017-09-25T03:58:23.546Z,27.70
2017-09-25T04:00:51.032Z,30.07
2017-09-25T04:03:18.515Z,24.97
2017-09-25T04:05:45.996Z,26.50
2017-09-25T04:08:13.457Z,26.97
2017-09-25T04:10:40.936Z,27.07
2017-09-25T04:13:08.432Z,25.67
2017-09-25T04:15:35.921Z,28.93
2017-09-25T04:18:03.375Z,28.40
2017-09-25T04:20:30.861Z,28.87
2017-09-25T04:22:58.327Z,29.77
2017-09-25T04:25:25.816Z,29.50
2017-09-25T04:27:53.273Z,26.77
2017-09-25T04:30:20.753Z,26.67
2017-09-25T04:32:48.206Z,26.03
2017-09-25T04:35:15.701Z,26.80
2017-09-25T04:37:43.173Z,25.63
2017-09-25T04:40:10.660Z,26.00
2017-09-25T04:42:38.128Z,25.40
2017-09-25T04:45:05.685Z,27.13
2017-09-25T04:47:33.159Z,23.50
2017-09-25T04:50:00.707Z,22.90
2017-09-25T04:52:28.196Z,24.30
2017-09-25T04:54:55.665Z,27.00
2017-09-25T04:57:23.153Z,26.60
2017-09-25T04:59:50.635Z,24.90
2017-09-25T05:02:18.110Z,25.60
2017-09-25T05:04:45.592Z,27.63
2017-09-25T05:07:13.111Z,27.07
2017-09-25T05:09:40.587Z,27.67
2017-09-25T05:12:08.065Z,27.23
2017-09-25T05:14:35.520Z,25.27
2017-09-25T05:17:03.001Z,26.90
2017-09-25T05:19:30.443Z,27.00
2017-09-25T05:21:57.931Z,26.40
2017-09-25T05:24:25.393Z,29.27
2017-09-25T05:26:52.867Z,29.10
2017-09-25T05:29:20.322Z,24.43
2017-09-25T05:31:47.796Z,25.90
2017-09-25T05:34:15.254Z,25.60
2017-09-25T05:36:42.723Z,25.97
2017-09-25T05:39:10.189Z,28.17
2017-09-25T05:41:37.683Z,28.37
2017-09-25T05:44:05.158Z,26.40
2017-09-25T05:46:32.616Z,26.27
2017-09-25T05:49:00.159Z,27.17
2017-09-25T05:51:27.619Z,28.07
2017-09-25T05:53:55.104Z,24.73
2017-09-25T05:56:22.570Z,25.07
2017-09-25T05:58:50.065Z,25.40
2017-09-25T06:01:17.529Z,27.60
2017-09-25T06:03:44.993Z,26.57
2017-09-25T06:06:12.594Z,28.07
2017-09-25T06:08:40.056Z,26.93
2017-09-25T06:11:07.549Z,26.90
2017-09-25T06:13:35.007Z,26.83
2017-09-25T06:16:02.474Z,25.87
2017-09-25T06:18:29.929Z,23.43
2017-09-25T06:20:57.407Z,25.70
2017-09-25T06:23:24.898Z,29.10
2017-09-25T06:25:52.380Z,28.03
2017-09-25T06:28:19.850Z,29.50
2017-09-25T06:30:47.325Z,24.80
2017-09-25T06:33:14.800Z,26.27
2017-09-25T06:35:42.272Z,27.17
2017-09-25T06:38:09.750Z,22.70
2017-09-25T06:40:37.232Z,24.67
2017-09-25T06:43:04.722Z,21.93
2017-09-25T06:45:32.211Z,23.90
2017-09-25T06:47:59.689Z,23.27
2017-09-25T06:50:27.176Z,24.70
2017-09-25T06:52:54.642Z,27.10
2017-09-25T06:55:22.115Z,24.83
2017-09-25T06:57:49.576Z,26.20
2017-09-25T07:00:17.112Z,21.60
2017-09-25T07:02:44.580Z,24.53
2017-09-25T07:05:12.079Z,22.00
2017-09-25T07:07:39.553Z,24.57
2017-09-25T07:10:07.071Z,23.00
2017-09-25T07:12:34.512Z,23.87
2017-09-25T07:15:02.024Z,23.90
2017-09-25T07:17:29.469Z,22.00
2017-09-25T07:19:56.942Z,19.83
2017-09-25T07:22:24.424Z,21.97
2017-09-25T07:24:51.933Z,23.83
2017-09-25T07:27:19.405Z,22.20
2017-09-25T07:29:46.874Z,21.30
2017-09-25T07:32:14.355Z,24.83
2017-09-25T07:34:41.811Z,18.63
2017-09-25T07:37:09.287Z,22.33
2017-09-25T07:39:36.753Z,22.83
2017-09-25T07:42:04.232Z,21.80
2017-09-25T07:44:31.696Z,22.93
2017-09-25T07:46:59.181Z,21.77
2017-09-25T07:49:26.805Z,24.23
2017-09-25T07:51:54.282Z,21.97
2017-09-25T07:54:21.755Z,22.63
2017-09-25T07:56:49.227Z,22.43
2017-09-25T07:59:16.789Z,21.67
2017-09-25T08:01:44.280Z,22.97
2017-09-25T08:04:11.798Z,24.67
2017-09-25T08:06:39.276Z,22.40
2017-09-25T08:09:06.759Z,21.90
2017-09-25T08:11:34.248Z,20.57
2017-09-25T08:14:01.728Z,20.20
2017-09-25T08:16:29.320Z,19.37
2017-09-25T08:18:56.794Z,19.07
2017-09-25T08:21:24.275Z,19.60
2017-09-25T08:23:51.737Z,19.90
2017-09-25T08:26:19.234Z,19.47
2017-09-25T08:28:46.777Z,19.30
2017-09-25T08:31:14.350Z,18.37
2017-09-25T08:33:41.808Z,17.87
2017-09-25T08:36:09.356Z,17.70
2017-09-25T08:38:36.917Z,17.87
2017-09-25T08:41:04.388Z,18.60
2017-09-25T08:43:31.938Z,21.00
2017-09-25T08:45:59.416Z,18.70
2017-09-25T08:48:26.988Z,17.63
2017-09-25T08:50:54.464Z,17.27
2017-09-25T08:53:21.960Z,16.53
2017-09-25T08:55:49.424Z,17.97
2017-09-25T08:58:16.946Z,17.93
2017-09-25T09:00:44.423Z,18.50
2017-09-25T09:03:11.899Z,18.97
2017-09-25T09:05:39.369Z,19.37
2017-09-25T09:08:06.866Z,19.07
2017-09-25T09:10:34.328Z,17.70
2017-09-25T09:13:02.017Z,16.03
2017-09-25T09:15:29.527Z,16.40
2017-09-25T09:17:57.028Z,15.87
2017-09-25T09:20:24.485Z,15.63
2017-09-25T09:22:52.013Z,16.33
2017-09-25T09:25:19.473Z,14.30
2017-09-25T09:27:47.072Z,17.10
2017-09-25T09:30:14.541Z,16.07
2017-09-25T09:32:42.107Z,15.87
2017-09-25T09:35:09.565Z,14.90
2017-09-25T09:37:37.101Z,14.07
2017-09-25T09:40:04.572Z,14.63
2017-09-25T09:42:32.038Z,13.60
2017-09-25T09:44:59.563Z,15.70
2017-09-25T09:47:27.044Z,13.80
2017-09-25T09:49:54.589Z,13.13
2017-09-25T09:52:22.043Z,12.83
2017-09-25T09:54:49.587Z,13.67
2017-09-25T09:57:17.065Z,12.07
2017-09-25T09:59:44.622Z,10.60
2017-09-25T10:02:12.088Z,11.00
2017-09-25T10:04:39.585Z,9.17
2017-09-25T10:07:07.050Z,6.97
2017-09-25T10:09:34.549Z,9.20
2017-09-25T10:12:02.009Z,8.03
2017-09-25T10:14:29.493Z,7.43
2017-09-25T10:16:57.017Z,6.20
2017-09-25T10:19:24.589Z,6.10
2017-09-25T10:21:52.031Z,6.10
2017-09-25T10:24:19.513Z,6.50
2017-09-25T10:26:46.973Z,7.50
2017-09-25T10:29:14.477Z,6.53
2017-09-25T10:31:41.936Z,5.23
2017-09-25T10:34:09.422Z,6.70
2017-09-25T10:36:36.885Z,7.07
2017-09-25T10:39:04.382Z,5.63
2017-09-25T10:41:31.841Z,6.00
2017-09-25T10:43:59.305Z,6.07
2017-09-25T10:46:26.901Z,5.93
2017-09-25T10:48:54.352Z,6.90
2017-09-25T10:51:21.818Z,6.27
2017-09-25T10:53:49.280Z,5.60
2017-09-25T10:56:16.766Z,5.30
2017-09-25T10:58:44.289Z,4.70
2017-09-25T11:01:11.769Z,3.83
2017-09-25T11:03:39.231Z,3.87
2017-09-25T11:06:06.713Z,3.73
2017-09-25T11:08:34.170Z,3.87
2017-09-25T11:11:01.820Z,2.40
2017-09-25T11:13:29.274Z,3.40
2017-09-25T11:15:56.753Z,4.07
2017-09-25T11:18:24.224Z,4.07
2017-09-25T11:20:51.905Z,3.20
2017-09-25T11:23:19.363Z,4.17
2017-09-25T11:25:46.934Z,4.30
2017-09-25T11:28:14.403Z,5.03
2017-09-25T11:30:41.941Z,4.30
2017-09-25T11:33:09.501Z,5.07
2017-09-25T11:35:36.981Z,4.80
2017-09-25T11:38:04.445Z,5.20
2017-09-25T11:40:31.975Z,5.30
2017-09-25T11:42:59.442Z,5.00
2017-09-25T11:45:26.914Z,4.30
2017-09-25T11:47:54.401Z,4.90
2017-09-25T11:50:21.847Z,4.70
2017-09-25T11:52:49.337Z,3.73
2017-09-25T11:55:16.813Z,3.90
2017-09-25T11:57:44.375Z,3.60
2017-09-25T12:00:11.827Z,4.27
2017-09-25T12:02:39.317Z,4.73
2017-09-25T12:05:06.760Z,4.30
2017-09-25T12:07:34.239Z,3.43
2017-09-25T12:10:02.110Z,4.00
2017-09-25T12:12:29.616Z,4.03
2017-09-25T12:14:57.094Z,3.00
2017-09-25T12:17:24.575Z,2.80
2017-09-25T12:19:52.097Z,3.57
2017-09-25T12:22:19.575Z,3.30
2017-09-25T12:24:47.025Z,3.07
2017-09-25T12:27:14.562Z,3.70
2017-09-25T12:29:42.122Z,2.90
2017-09-25T12:32:09.628Z,3.30
2017-09-25T12:34:37.085Z,3.70
2017-09-25T12:37:04.601Z,2.30
2017-09-25T12:39:32.157Z,2.60
2017-09-25T12:41:59.706Z,2.27
2017-09-25T12:44:27.193Z,4.00
2017-09-25T12:46:54.657Z,3.87
2017-09-25T12:49:22.193Z,4.17
2017-09-25T12:51:49.652Z,4.53
2017-09-25T12:54:17.199Z,4.57
2017-09-25T12:56:44.675Z,4.20
2017-09-25T12:59:12.164Z,4.17
2017-09-25T13:01:39.626Z,4.73
2017-09-25T13:04:07.142Z,5.73
2017-09-25T13:06:34.609Z,3.93
2017-09-25T13:09:02.079Z,3.97
2017-09-25T13:11:29.540Z,4.03
2017-09-25T13:13:57.425Z,3.67
2017-09-25T13:16:24.880Z,4.30
2017-09-25T13:18:52.337Z,3.50
2017-09-25T13:21:19.834Z,3.73
2017-09-25T13:23:47.384Z,3.10
2017-09-25T13:26:14.892Z,4.10
2017-09-25T13:28:42.354Z,2.70
2017-09-25T13:31:09.823Z,2.63
2017-09-25T13:33:37.277Z,3.20
2017-09-25T13:36:04.757Z,3.03
2017-09-25T13:38:32.236Z,2.90
2017-09-25T13:40:59.950Z,2.73
2017-09-25T13:43:27.434Z,3.07
2017-09-25T13:45:54.929Z,3.40
2017-09-25T13:48:22.390Z,3.30
2017-09-25T13:50:49.931Z,2.63
2017-09-25T13:53:17.393Z,3.27
2017-09-25T13:55:44.893Z,2.80
2017-09-25T13:58:12.392Z,2.80
2017-09-25T14:03:12.690Z,3.10
2017-09-25T14:05:40.177Z,3.40
2017-09-25T14:08:07.636Z,3.20
2017-09-25T14:10:35.122Z,2.90
2017-09-25T14:13:02.595Z,2.90
2017-09-25T14:15:30.122Z,2.87
2017-09-25T14:17:57.580Z,2.73
2017-09-25T14:20:25.059Z,3.37
2017-09-25T14:22:52.929Z,2.47
2017-09-25T14:25:20.401Z,3.23
2017-09-25T14:27:47.882Z,3.23
2017-09-25T14:30:15.390Z,3.50
2017-09-25T14:32:42.888Z,3.60
2017-09-25T14:35:10.353Z,3.37
2017-09-25T14:37:37.853Z,3.70
2017-09-25T14:40:05.316Z,3.70
2017-09-25T14:42:32.818Z,4.27
2017-09-25T14:45:00.289Z,3.43
2017-09-25T14:47:27.873Z,4.70
2017-09-25T14:49:55.434Z,4.13
2017-09-25T14:52:22.921Z,3.60
2017-09-25T14:54:50.471Z,3.83
2017-09-25T14:57:17.948Z,3.73
2017-09-25T14:59:45.394Z,4.53
2017-09-25T15:02:12.931Z,4.80
2017-09-25T15:04:40.477Z,4.53
2017-09-25T15:07:07.966Z,5.03
2017-09-25T15:09:35.426Z,4.43
2017-09-25T15:12:02.913Z,5.00
2017-09-25T15:14:30.405Z,5.67
2017-09-25T15:16:57.958Z,4.57
2017-09-25T15:19:25.400Z,4.80
2017-09-25T15:21:52.871Z,4.80
2017-09-25T15:24:20.465Z,5.17
2017-09-25T15:26:47.949Z,5.53
2017-09-25T15:29:15.395Z,4.87
2017-09-25T15:31:42.877Z,5.10
2017-09-25T15:34:10.341Z,4.83
2017-09-25T15:36:37.822Z,4.97
2017-09-25T15:39:05.396Z,4.93
2017-09-25T15:41:32.987Z,4.87
2017-09-25T15:44:00.456Z,6.03
2017-09-25T15:46:28.254Z,4.93
2017-09-25T15:48:55.703Z,5.73
2017-09-25T15:51:23.174Z,5.33
2017-09-25T15:53:50.678Z,5.27
2017-09-25T15:56:18.153Z,4.90
2017-09-25T15:58:45.639Z,4.47
2017-09-25T16:01:13.106Z,5.97
2017-09-25T16:03:40.593Z,5.03
2017-09-25T16:06:08.045Z,5.63
2017-09-25T16:08:35.528Z,5.20
2017-09-25T16:11:02.990Z,6.23
2017-09-25T16:13:30.489Z,5.53
2017-09-25T16:15:58.012Z,5.43
2017-09-25T16:18:26.179Z,5.63
2017-09-25T16:20:53.642Z,5.63
2017-09-25T16:23:21.124Z,5.67
2017-09-25T16:25:48.653Z,6.17
2017-09-25T16:28:16.145Z,5.90
2017-09-25T16:30:43.609Z,6.80
2017-09-25T16:33:11.095Z,6.50
2017-09-25T16:35:38.561Z,6.50
2017-09-25T16:38:06.043Z,6.83
2017-09-25T16:40:33.501Z,6.87
2017-09-25T16:43:00.985Z,6.43
2017-09-25T16:45:28.440Z,6.83
2017-09-25T16:47:55.925Z,6.47
2017-09-25T16:50:23.460Z,5.80
2017-09-25T16:52:51.029Z,6.80
2017-09-25T16:55:18.491Z,7.50
2017-09-25T16:57:45.988Z,8.40
2017-09-25T17:00:13.493Z,7.80
2017-09-25T17:02:41.050Z,8.13
2017-09-25T17:05:08.536Z,6.30
2017-09-25T17:07:36.003Z,8.93
2017-09-25T17:10:03.501Z,7.23
2017-09-25T17:12:30.957Z,7.50
2017-09-25T17:14:58.517Z,6.43
2017-09-25T17:17:25.973Z,7.17
2017-09-25T17:19:53.457Z,7.23
2017-09-25T17:22:21.017Z,7.80
2017-09-25T17:24:48.487Z,7.80
2017-09-25T17:27:15.997Z,7.20
2017-09-25T17:29:43.593Z,8.40
2017-09-25T17:32:11.139Z,8.00
2017-09-25T17:34:38.620Z,8.20
2017-09-25T17:37:06.090Z,7.60
2017-09-25T17:39:33.621Z,7.37
2017-09-25T17:42:01.178Z,6.83
2017-09-25T17:44:28.737Z,7.17
2017-09-25T17:46:56.288Z,7.93
2017-09-25T17:49:23.781Z,7.10
2017-09-25T17:51:51.299Z,6.90
2017-09-25T17:54:18.858Z,6.50
2017-09-25T17:56:46.321Z,7.30
2017-09-25T17:59:13.884Z,8.23
2017-09-25T18:01:41.460Z,7.03
2017-09-25T18:04:08.949Z,6.97
2017-09-25T18:06:36.420Z,7.00
2017-09-25T18:09:03.915Z,6.93
2017-09-25T18:11:31.489Z,8.37
2017-09-25T18:13:58.988Z,7.40
2017-09-25T18:16:26.449Z,8.40
2017-09-25T18:18:53.934Z,8.57
2017-09-25T18:21:21.380Z,6.77
2017-09-25T18:23:48.873Z,7.77
2017-09-25T18:26:16.406Z,7.90
2017-09-25T18:28:43.976Z,9.03
2017-09-25T18:31:11.580Z,8.47
2017-09-25T18:33:39.038Z,8.40
2017-09-25T18:36:06.525Z,8.30
2017-09-25T18:38:33.985Z,8.60
2017-09-25T18:41:01.459Z,8.27
2017-09-25T18:43:29.003Z,8.00
2017-09-25T18:45:56.490Z,8.73
2017-09-25T18:48:23.976Z,8.27
2017-09-25T18:50:51.627Z,8.33
2017-09-25T18:53:19.149Z,8.50
2017-09-25T18:55:46.637Z,10.20
2017-09-25T18:58:14.118Z,10.07
2017-09-25T19:00:41.595Z,9.70
2017-09-25T19:03:09.086Z,11.27
2017-09-25T19:05:36.580Z,10.00
2017-09-25T19:08:04.092Z,10.00
2017-09-25T19:10:31.662Z,10.73
2017-09-25T19:12:59.132Z,10.70
2017-09-25T19:15:26.674Z,10.73
2017-09-25T19:17:54.141Z,9.10
2017-09-25T19:20:21.685Z,11.10
2017-09-25T19:22:49.147Z,10.20
2017-09-25T19:25:16.644Z,10.37
2017-09-25T19:27:44.116Z,10.30
2017-09-25T19:30:11.605Z,9.80
2017-09-25T19:32:39.060Z,10.73
2017-09-25T19:35:06.558Z,10.23
2017-09-25T19:37:34.033Z,9.83
2017-09-25T19:40:01.538Z,12.20
2017-09-25T19:42:28.991Z,10.90
2017-09-25T19:44:56.445Z,10.10
2017-09-25T19:47:23.951Z,10.43
2017-09-25T19:52:51.942Z,12.50
2017-09-25T19:55:35.259Z,11.57
2017-09-25T19:58:05.115Z,11.73
2017-09-25T20:00:32.572Z,11.10
2017-09-25T20:03:00.069Z,11.03
2017-09-25T20:05:27.552Z,12.33
2017-09-25T20:07:55.045Z,11.37
2017-09-25T20:10:22.811Z,12.47
2017-09-25T20:12:50.304Z,11.83
2017-09-25T20:15:19.624Z,11.77
2017-09-25T20:17:49.025Z,10.13
2017-09-25T20:20:16.479Z,11.40
2017-09-25T20:22:44.021Z,10.70
2017-09-25T20:25:11.493Z,10.17
2017-09-25T20:27:39.029Z,10.30
2017-09-25T20:30:06.508Z,9.70
2017-09-25T20:32:34.001Z,11.00
2017-09-25T20:35:01.469Z,11.13
2017-09-25T20:37:28.957Z,9.77
2017-09-25T20:39:56.428Z,11.93
2017-09-25T20:42:27.380Z,11.77
2017-09-25T20:44:54.848Z,10.77
2017-09-25T20:47:22.334Z,12.00
2017-09-25T20:49:49.821Z,10.63
2017-09-25T20:52:17.368Z,10.30
2017-09-25T20:54:44.928Z,11.43
2017-09-25T20:57:12.422Z,9.63
2017-09-25T20:59:39.889Z,9.90
2017-09-25T21:02:07.400Z,11.20
2017-09-25T21:04:34.964Z,11.00
2017-09-25T21:07:02.477Z,10.40
2017-09-25T21:09:29.957Z,11.07
2017-09-25T21:11:57.435Z,11.30
2017-09-25T21:14:25.001Z,11.30
2017-09-25T21:16:52.557Z,12.03
2017-09-25T21:19:20.035Z,10.77
2017-09-25T21:21:47.503Z,12.50
2017-09-25T21:24:14.993Z,11.57
2017-09-25T21:29:47.262Z,11.63
2017-09-25T21:32:14.741Z,12.20
2017-09-25T21:34:42.231Z,11.17
2017-09-25T21:37:09.697Z,10.47
2017-09-25T21:39:37.186Z,11.07
2017-09-25T21:42:04.673Z,10.87
2017-09-25T21:44:32.161Z,10.47
2017-09-25T21:46:59.633Z,11.77
2017-09-25T21:49:27.182Z,11.53
2017-09-25T21:51:54.661Z,10.83
2017-09-25T21:54:22.164Z,9.57
2017-09-25T21:56:49.741Z,10.73
2017-09-25T21:59:17.256Z,10.50
2017-09-25T22:01:44.729Z,11.17
2017-09-25T22:04:12.322Z,11.30
2017-09-25T22:06:39.792Z,11.23
2017-09-25T22:09:07.338Z,11.67
2017-09-25T22:11:34.844Z,11.20
2017-09-25T22:14:02.340Z,11.30
2017-09-25T22:16:29.805Z,11.07
2017-09-25T22:18:57.369Z,12.17
2017-09-25T22:21:24.925Z,10.30
2017-09-25T22:23:52.422Z,10.50
2017-09-25T22:26:19.894Z,12.80
2017-09-25T22:28:47.356Z,11.07
2017-09-25T22:31:14.960Z,12.60
2017-09-25T22:33:42.434Z,12.03
2017-09-25T22:36:09.946Z,13.23
2017-09-25T22:38:37.417Z,12.43
2017-09-25T22:41:04.911Z,11.33
2017-09-25T22:43:35.146Z,10.50
2017-09-25T22:46:02.649Z,9.53
2017-09-25T22:48:30.215Z,10.40
2017-09-25T22:50:57.720Z,9.63
2017-09-25T22:53:25.188Z,9.70
2017-09-25T22:55:52.683Z,10.20
2017-09-25T22:58:20.145Z,11.30
2017-09-25T23:00:47.639Z,12.83
2017-09-25T23:03:15.108Z,11.03
2017-09-25T23:05:58.392Z,11.43
2017-09-25T23:08:25.850Z,9.90
2017-09-25T23:10:53.341Z,10.23
2017-09-25T23:13:20.817Z,9.10
2017-09-25T23:15:48.324Z,10.47
2017-09-25T23:18:15.801Z,10.00
2017-09-25T23:20:43.283Z,10.23
2017-09-25T23:23:10.735Z,10.27
2017-09-25T23:25:38.265Z,10.40
2017-09-25T23:28:05.734Z,9.23
2017-09-25T23:30:38.926Z,10.50
2017-09-25T23:33:06.405Z,11.00
2017-09-25T23:35:33.907Z,11.30
2017-09-25T23:38:01.463Z,10.47
2017-09-25T23:40:28.968Z,10.50
2017-09-25T23:42:56.436Z,12.50
2017-09-25T23:45:23.922Z,12.67
2017-09-25T23:47:51.387Z,11.90
2017-09-25T23:50:18.879Z,10.23
2017-09-25T23:52:46.352Z,10.60
2017-09-25T23:55:13.877Z,12.30
2017-09-25T23:57:41.433Z,10.97
